Hicksville, OH

5:44 PM EDT on March 27, 2015 (GMT -0400)
Hicksville | | Change Station
CLOSE
Current Station
Personal Weather Station
Location: Hicksville, OH
Elevation: 774 ft
Nearby Weather Stations

Elev 774 ft 41.30 °N, 84.76 °W | Updated 2 minutes ago

Mostly Cloudy
Mostly Cloudy
34.2 °F
Feels Like 34 °F
N
2.7
Wind Variable Wind from North

Today
High -- | Low -- °F
--% Chance of Precip.
Yesterday
High -- | Low -- °F
Precip. -- in
7:30 AM 7:58 PM
First Quarter, 56% visible
Pressure 30.06 in
Visibility 10.0 miles
Clouds Mostly Cloudy 6500 ft
Windchill 34 °F
Dew Point 9 °F
Humidity 35%
Rainfall 0.00 in
Snow Depth Not available.
UV 2 out of 12
Pollen 2.00 out of 12
Air Quality Not available.
Flu Activity Not available.
METAR KDFI 272053Z AUTO 32009KT 10SM BKN065 00/M14 A3003 RMK AO2 SLP177 T00001139 58010

More Conditions Fewer Conditions

Pressure 30.06 in
Visibility 10.0 miles
Clouds Mostly Cloudy 6500 ft
Windchill 34 °F
Dew Point 9 °F
Humidity 35%
Rainfall 0.00 in
Snow Depth Not available.
UV 2 out of 12
Pollen 2.00 out of 12
Air Quality Not available.
Flu Activity Not available.
METAR KDFI 272053Z AUTO 32009KT 10SM BKN065 00/M14 A3003 RMK AO2 SLP177 T00001139 58010

More Conditions Fewer Conditions

10-Day Weather Forecast

Almanac

Astronomy

Mar. 27, 2015 Rise Set
Actual Time
Civil Twilight
Nautical Twilight
Astronomical Twilight
Moon
Length of Visible Light
Length of Day
Tomorrow will be .
, % of the Moon is Illuminated

Today's Extremes

State Highs State Lows

Community

WunderPhotos

Upload Photos

1,808,834 photos uploaded!

WunderBlogs® & News

Nearby

Air Quality

  Air Quality AQ Index Pollutant
Not available.

Snow Depth

Station Depth Elevation

Earthquake Activity

City Distance Mag. Time & Date
Minimum magnitude displayed is 2.5.

Coastal Water Temperatures

Place Temperature

Stations

Nearby Weather Stations

Station Location Temp. Windchill Dew Point Humidity Wind Precip. Elev Updated Type